Time;durP1;ratioP1;P1;durP2;ratioP2;P2;SDS_P1;SDS_P2;PMS_P1;PMS_P2;Temp;Humidity;BMP_temperature;BMP_pressure;BME280_temperature;BME280_humidity;BME280_pressure;Samples;Min_cycle;Max_cycle;Signal;HPM_P1;HPM_P2
2022/03/17 00:01:35;;;;;;;20.50;11.48;;;;;;;;;;7387878;19;20006;-77
2022/03/17 00:04:00;;;;;;;20.77;11.52;;;;;;;;;;7386565;19;20476;-77
2022/03/17 00:06:28;;;;;;;18.40;10.88;;;;;;;;;;7389788;19;20037;-77
2022/03/17 00:08:53;;;;;;;22.77;12.75;;;;;;;;;;7388445;19;20018;-77
2022/03/17 00:11:18;;;;;;;17.42;10.38;;;;;;;;;;7389197;19;20006;-77
2022/03/17 00:13:44;;;;;;;20.25;11.90;;;;;;;;;;7387891;19;20010;-77
2022/03/17 00:16:10;;;;;;;18.77;11.40;;;;;;;;;;7389761;19;19998;-77
2022/03/17 00:18:36;;;;;;;22.17;12.02;;;;;;;;;;7390651;19;20024;-75
2022/03/17 00:21:02;;;;;;;17.77;11.07;;;;;;;;;;7396655;19;20328;-77
2022/03/17 00:23:28;;;;;;;17.65;11.02;;;;;;;;;;7398659;19;20023;-76
2022/03/17 00:25:53;;;;;;;20.25;11.27;;;;;;;;;;7399072;19;20014;-77
2022/03/17 00:28:18;;;;;;;19.70;11.15;;;;;;;;;;7395572;19;20016;-78
2022/03/17 00:30:44;;;;;;;20.73;11.32;;;;;;;;;;7398946;19;20013;-77
2022/03/17 00:33:09;;;;;;;16.08;10.27;;;;;;;;;;7396763;19;20040;-77
2022/03/17 00:35:38;;;;;;;21.52;11.88;;;;;;;;;;7399551;19;20336;-76
2022/03/17 00:38:09;;;;;;;17.83;10.88;;;;;;;;;;7396913;19;20014;-77
2022/03/17 00:40:36;;;;;;;22.25;11.77;;;;;;;;;;7398126;19;20006;-75
2022/03/17 00:43:04;;;;;;;21.40;11.52;;;;;;;;;;7397308;19;20017;-78
2022/03/17 00:45:29;;;;;;;16.92;10.82;;;;;;;;;;7397783;19;20007;-77
2022/03/17 00:47:54;;;;;;;16.15;10.70;;;;;;;;;;7394793;19;20034;-78
2022/03/17 00:50:21;;;;;;;18.42;11.23;;;;;;;;;;7397627;19;20077;-77
2022/03/17 00:52:46;;;;;;;17.83;11.45;;;;;;;;;;7395686;19;20070;-77
2022/03/17 00:55:13;;;;;;;20.27;11.73;;;;;;;;;;7394729;19;20044;-77
2022/03/17 00:57:39;;;;;;;21.52;11.57;;;;;;;;;;7396072;19;20038;-77
2022/03/17 01:00:06;;;;;;;17.13;10.15;;;;;;;;;;7394155;19;20801;-77
2022/03/17 01:02:31;;;;;;;14.80;9.68;;;;;;;;;;7396595;19;20027;-77
2022/03/17 01:04:57;;;;;;;17.50;10.40;;;;;;;;;;7397036;19;20007;-77
2022/03/17 01:07:22;;;;;;;16.88;11.07;;;;;;;;;;7392138;19;20015;-77
2022/03/17 01:09:48;;;;;;;19.58;10.57;;;;;;;;;;7393024;19;20045;-77
2022/03/17 01:12:13;;;;;;;17.02;10.73;;;;;;;;;;7395330;19;20010;-78
2022/03/17 01:14:38;;;;;;;14.27;8.90;;;;;;;;;;7395903;19;20003;-77
2022/03/17 01:17:03;;;;;;;18.38;10.00;;;;;;;;;;7396097;19;20081;-77
2022/03/17 01:19:29;;;;;;;15.68;9.60;;;;;;;;;;7390776;19;20003;-76
2022/03/17 01:21:54;;;;;;;23.67;11.45;;;;;;;;;;7409249;19;20007;-74
2022/03/17 01:24:20;;;;;;;21.38;10.80;;;;;;;;;;7421135;19;20010;-73
2022/03/17 01:26:46;;;;;;;17.92;10.45;;;;;;;;;;7424004;19;20032;-72
2022/03/17 01:29:12;;;;;;;18.02;11.45;;;;;;;;;;7422370;19;19998;-73
2022/03/17 01:31:38;;;;;;;19.67;10.90;;;;;;;;;;7425633;19;19998;-73
2022/03/17 01:34:03;;;;;;;17.52;10.95;;;;;;;;;;7405093;19;20006;-77
2022/03/17 01:36:29;;;;;;;21.02;10.70;;;;;;;;;;7396567;19;20040;-77
2022/03/17 01:38:55;;;;;;;18.30;10.48;;;;;;;;;;7393093;19;20006;-76
2022/03/17 01:41:20;;;;;;;17.17;10.73;;;;;;;;;;7392958;19;20010;-78
2022/03/17 01:43:46;;;;;;;16.65;9.90;;;;;;;;;;7393754;19;20021;-75
2022/03/17 01:46:14;;;;;;;17.52;10.82;;;;;;;;;;7394454;19;20010;-77
2022/03/17 01:48:39;;;;;;;21.65;11.80;;;;;;;;;;7390940;19;20017;-76
2022/03/17 01:51:05;;;;;;;19.17;10.50;;;;;;;;;;7392796;19;20010;-77
2022/03/17 01:53:31;;;;;;;21.85;11.50;;;;;;;;;;7395607;19;20038;-77
2022/03/17 01:55:58;;;;;;;17.63;11.13;;;;;;;;;;7395314;19;20117;-77
2022/03/17 01:58:24;;;;;;;17.50;10.55;;;;;;;;;;7390740;19;20002;-74
2022/03/17 02:00:50;;;;;;;17.75;9.70;;;;;;;;;;7389859;19;20026;-78
2022/03/17 02:03:15;;;;;;;17.75;9.60;;;;;;;;;;7390579;19;20014;-77
2022/03/17 02:05:41;;;;;;;17.42;10.43;;;;;;;;;;7392001;19;20002;-78
2022/03/17 02:08:09;;;;;;;15.40;9.43;;;;;;;;;;7391621;19;20467;-74
2022/03/17 02:13:08;;;;;;;22.23;10.93;;;;;;;;;;7391476;19;20011;-78
2022/03/17 02:13:21;;;;;;;17.15;11.05;;;;;;;;;;7390451;19;20002;-76
2022/03/17 02:15:54;;;;;;;16.20;9.63;;;;;;;;;;7390206;19;20010;-77
2022/03/17 02:18:20;;;;;;;18.38;10.45;;;;;;;;;;7390756;19;20007;-77
2022/03/17 02:20:45;;;;;;;15.63;9.75;;;;;;;;;;7397387;19;20110;-76
2022/03/17 02:25:58;;;;;;;16.08;10.05;;;;;;;;;;7395291;19;20035;-77
2022/03/17 02:28:25;;;;;;;16.83;9.95;;;;;;;;;;7388335;19;20028;-76
2022/03/17 02:30:50;;;;;;;16.05;9.60;;;;;;;;;;7390593;19;20035;-76
2022/03/17 02:33:16;;;;;;;16.67;10.65;;;;;;;;;;7391524;19;20006;-76
2022/03/17 02:35:43;;;;;;;17.60;9.63;;;;;;;;;;7389356;19;20014;-77
2022/03/17 02:38:11;;;;;;;19.17;10.73;;;;;;;;;;7389470;19;20007;-77
2022/03/17 02:40:37;;;;;;;18.20;11.18;;;;;;;;;;7387729;19;20014;-75
2022/03/17 02:43:04;;;;;;;16.50;10.15;;;;;;;;;;7387932;19;20013;-77
2022/03/17 02:45:30;;;;;;;20.98;11.40;;;;;;;;;;7391817;19;20035;-76
2022/03/17 02:47:56;;;;;;;16.27;10.95;;;;;;;;;;7387848;19;20006;-76
2022/03/17 02:50:22;;;;;;;17.58;9.82;;;;;;;;;;7390244;19;20451;-76
2022/03/17 02:52:47;;;;;;;18.50;11.48;;;;;;;;;;7392273;19;20009;-75
2022/03/17 02:55:12;;;;;;;17.77;10.65;;;;;;;;;;7392092;19;20430;-77
2022/03/17 02:57:43;;;;;;;16.48;11.23;;;;;;;;;;7392615;19;20014;-76
2022/03/17 03:00:10;;;;;;;16.13;10.75;;;;;;;;;;7391146;19;20021;-77
2022/03/17 03:02:36;;;;;;;16.38;10.65;;;;;;;;;;7395009;19;19998;-77
2022/03/17 03:05:03;;;;;;;20.92;11.35;;;;;;;;;;7392356;19;20035;-77
2022/03/17 03:07:28;;;;;;;17.10;10.25;;;;;;;;;;7391592;19;20078;-76
2022/03/17 03:09:55;;;;;;;20.83;11.15;;;;;;;;;;7391501;19;20011;-77
2022/03/17 03:12:20;;;;;;;20.05;11.40;;;;;;;;;;7394455;19;20023;-76
2022/03/17 03:14:46;;;;;;;23.67;11.73;;;;;;;;;;7394039;19;20006;-77
2022/03/17 03:17:12;;;;;;;21.83;11.68;;;;;;;;;;7392431;19;20024;-77
2022/03/17 03:19:37;;;;;;;20.85;11.45;;;;;;;;;;7391264;19;20002;-77
2022/03/17 03:22:03;;;;;;;21.48;11.85;;;;;;;;;;7393513;19;20135;-77
2022/03/17 03:24:28;;;;;;;20.30;11.68;;;;;;;;;;7394199;19;20047;-76
2022/03/17 03:26:53;;;;;;;18.58;11.68;;;;;;;;;;7392399;19;19998;-77
2022/03/17 03:29:25;;;;;;;23.48;12.90;;;;;;;;;;7393110;19;20021;-76
2022/03/17 03:31:56;;;;;;;22.65;12.18;;;;;;;;;;7392378;19;20009;-76
2022/03/17 03:34:23;;;;;;;18.48;11.32;;;;;;;;;;7392295;19;20014;-77
2022/03/17 03:39:33;;;;;;;18.50;11.40;;;;;;;;;;7390995;19;20047;-76
2022/03/17 03:42:00;;;;;;;22.50;12.10;;;;;;;;;;7394751;19;20002;-78
2022/03/17 03:44:25;;;;;;;22.48;11.93;;;;;;;;;;7392901;19;20035;-76
2022/03/17 03:46:50;;;;;;;18.10;11.43;;;;;;;;;;7391422;19;20007;-77
2022/03/17 03:49:17;;;;;;;20.90;11.32;;;;;;;;;;7392850;19;20020;-76
2022/03/17 03:51:42;;;;;;;23.70;12.57;;;;;;;;;;7394108;19;20010;-78
2022/03/17 03:54:13;;;;;;;19.05;11.48;;;;;;;;;;7402472;19;20010;-77
2022/03/17 03:56:50;;;;;;;20.30;13.30;;;;;;;;;;7401888;19;20010;-79
2022/03/17 03:59:23;;;;;;;20.88;11.93;;;;;;;;;;7399553;19;19995;-78
2022/03/17 04:01:50;;;;;;;20.08;11.60;;;;;;;;;;7401329;19;20010;-77
2022/03/17 04:04:20;;;;;;;24.40;14.02;;;;;;;;;;7400507;19;20505;-79
2022/03/17 04:06:54;;;;;;;22.00;13.02;;;;;;;;;;7399753;19;20023;-78
2022/03/17 04:09:26;;;;;;;18.48;11.52;;;;;;;;;;7398044;19;20019;-77
2022/03/17 04:11:52;;;;;;;20.90;12.40;;;;;;;;;;7399978;19;19998;-78
2022/03/17 04:14:17;;;;;;;20.98;12.00;;;;;;;;;;7396799;19;20013;-77
2022/03/17 04:16:43;;;;;;;22.30;11.60;;;;;;;;;;7397832;19;20010;-78
2022/03/17 04:19:09;;;;;;;21.88;12.55;;;;;;;;;;7396928;19;20011;-77
2022/03/17 04:21:35;;;;;;;24.48;13.35;;;;;;;;;;7402131;19;20027;-77
2022/03/17 04:24:00;;;;;;;21.17;12.07;;;;;;;;;;7402323;19;20002;-79
2022/03/17 04:26:26;;;;;;;26.58;13.48;;;;;;;;;;7400320;19;20007;-78
2022/03/17 04:28:52;;;;;;;24.35;13.32;;;;;;;;;;7396203;19;20016;-78
2022/03/17 04:31:18;;;;;;;20.15;12.30;;;;;;;;;;7403033;19;20014;-77
2022/03/17 04:33:43;;;;;;;23.40;12.90;;;;;;;;;;7401070;19;20021;-78
2022/03/17 04:36:10;;;;;;;24.13;13.20;;;;;;;;;;7400798;19;20018;-78
2022/03/17 04:38:36;;;;;;;21.10;11.77;;;;;;;;;;7397739;19;20006;-77
2022/03/17 04:41:01;;;;;;;18.83;11.60;;;;;;;;;;7402466;19;20084;-77
2022/03/17 04:43:26;;;;;;;23.23;13.02;;;;;;;;;;7401629;19;20007;-78
2022/03/17 04:45:51;;;;;;;24.02;13.40;;;;;;;;;;7402122;19;20013;-77
2022/03/17 04:48:17;;;;;;;22.15;12.52;;;;;;;;;;7398574;19;20006;-77
2022/03/17 04:50:43;;;;;;;23.75;12.93;;;;;;;;;;7401950;19;20014;-78
2022/03/17 04:53:27;;;;;;;23.60;13.15;;;;;;;;;;7398212;19;20042;-78
2022/03/17 04:56:08;;;;;;;22.30;12.20;;;;;;;;;;7397723;19;20379;-78
2022/03/17 04:58:36;;;;;;;24.90;12.65;;;;;;;;;;7396924;19;19995;-77
2022/03/17 05:01:02;;;;;;;24.00;13.15;;;;;;;;;;7400173;19;20139;-77
2022/03/17 05:03:27;;;;;;;23.35;13.25;;;;;;;;;;7400147;19;20011;-76
2022/03/17 05:05:56;;;;;;;27.13;14.55;;;;;;;;;;7396483;19;20026;-78
2022/03/17 05:08:21;;;;;;;20.67;12.98;;;;;;;;;;7392514;19;20013;-75
2022/03/17 05:10:47;;;;;;;26.83;14.23;;;;;;;;;;7395983;19;20439;-76
2022/03/17 05:13:15;;;;;;;25.00;13.55;;;;;;;;;;7395862;19;20022;-77
2022/03/17 05:15:43;;;;;;;21.08;13.00;;;;;;;;;;7399501;19;20485;-77
2022/03/17 05:18:09;;;;;;;23.65;12.73;;;;;;;;;;7395493;19;20474;-77
2022/03/17 05:20:40;;;;;;;23.25;13.23;;;;;;;;;;7392238;19;20003;-75
2022/03/17 05:23:08;;;;;;;23.55;13.00;;;;;;;;;;7394713;19;19998;-75
2022/03/17 05:25:34;;;;;;;19.15;12.00;;;;;;;;;;7395052;19;20035;-75
2022/03/17 05:28:00;;;;;;;19.00;11.02;;;;;;;;;;7389941;19;20066;-74
2022/03/17 05:30:26;;;;;;;19.80;11.70;;;;;;;;;;7391997;19;20031;-76
2022/03/17 05:32:52;;;;;;;18.00;11.02;;;;;;;;;;7392428;19;20010;-76
2022/03/17 05:35:18;;;;;;;20.25;12.20;;;;;;;;;;7393876;19;20004;-77
2022/03/17 05:37:44;;;;;;;24.63;13.85;;;;;;;;;;7392334;19;20098;-76
2022/03/17 05:40:15;;;;;;;19.85;10.98;;;;;;;;;;7391084;19;19995;-76
2022/03/17 05:42:41;;;;;;;22.13;12.25;;;;;;;;;;7393065;19;20337;-75
2022/03/17 05:45:07;;;;;;;24.55;13.65;;;;;;;;;;7391652;19;20362;-76
2022/03/17 05:47:41;;;;;;;24.13;13.48;;;;;;;;;;7389383;19;19995;-77
2022/03/17 05:50:09;;;;;;;21.02;12.73;;;;;;;;;;7387549;19;20014;-76
2022/03/17 05:52:36;;;;;;;21.83;13.23;;;;;;;;;;7395344;19;19990;-76
2022/03/17 05:55:02;;;;;;;19.35;12.48;;;;;;;;;;7391620;19;20315;-77
2022/03/17 05:57:27;;;;;;;20.98;13.38;;;;;;;;;;7397326;19;20006;-77
2022/03/17 05:59:52;;;;;;;23.65;13.57;;;;;;;;;;7395914;19;20006;-77
2022/03/17 06:02:18;;;;;;;22.67;12.93;;;;;;;;;;7391998;19;20331;-76
2022/03/17 06:04:43;;;;;;;20.23;12.18;;;;;;;;;;7393064;19;20080;-76
2022/03/17 06:07:08;;;;;;;17.70;11.13;;;;;;;;;;7392951;19;20011;-77
2022/03/17 06:09:34;;;;;;;18.23;10.48;;;;;;;;;;7390332;19;19999;-76
2022/03/17 06:11:59;;;;;;;22.02;12.85;;;;;;;;;;7394844;19;19999;-76
2022/03/17 06:14:26;;;;;;;19.17;11.00;;;;;;;;;;7394080;19;20006;-76
2022/03/17 06:16:52;;;;;;;20.80;12.75;;;;;;;;;;7395736;19;20014;-78
2022/03/17 06:19:17;;;;;;;19.25;11.88;;;;;;;;;;7389780;19;20484;-76
2022/03/17 06:21:43;;;;;;;20.30;12.52;;;;;;;;;;7391528;19;19991;-77
2022/03/17 06:24:08;;;;;;;21.95;13.75;;;;;;;;;;7390967;19;20160;-77
2022/03/17 06:26:33;;;;;;;29.15;14.93;;;;;;;;;;7391627;19;20005;-76
2022/03/17 06:28:59;;;;;;;24.90;14.32;;;;;;;;;;7388424;19;20017;-76
2022/03/17 06:31:24;;;;;;;20.27;13.00;;;;;;;;;;7392990;19;19998;-78
2022/03/17 06:33:49;;;;;;;20.90;12.50;;;;;;;;;;7389772;19;20030;-77
2022/03/17 06:36:15;;;;;;;26.20;14.50;;;;;;;;;;7392597;19;20026;-77
2022/03/17 06:38:40;;;;;;;21.65;13.80;;;;;;;;;;7386492;19;20006;-78
2022/03/17 06:41:05;;;;;;;19.13;12.32;;;;;;;;;;7391795;19;20010;-77
2022/03/17 06:43:31;;;;;;;21.65;13.35;;;;;;;;;;7387667;19;20006;-77
2022/03/17 06:45:56;;;;;;;21.33;12.57;;;;;;;;;;7388439;19;20130;-77
2022/03/17 06:48:21;;;;;;;23.75;13.60;;;;;;;;;;7387194;19;20006;-77
2022/03/17 06:50:46;;;;;;;28.17;13.90;;;;;;;;;;7388574;19;20457;-77
2022/03/17 06:53:12;;;;;;;21.75;12.95;;;;;;;;;;7392295;19;20039;-77
2022/03/17 06:55:37;;;;;;;24.50;14.48;;;;;;;;;;7390031;19;20018;-76
2022/03/17 06:58:03;;;;;;;21.90;13.50;;;;;;;;;;7387562;19;20022;-77
2022/03/17 07:00:28;;;;;;;23.90;14.68;;;;;;;;;;7388962;19;20044;-77
2022/03/17 07:02:53;;;;;;;27.58;14.93;;;;;;;;;;7393390;19;20027;-77
2022/03/17 07:05:19;;;;;;;29.70;14.98;;;;;;;;;;7390622;19;20010;-77
2022/03/17 07:07:44;;;;;;;24.98;14.65;;;;;;;;;;7388042;19;20062;-76
2022/03/17 07:10:11;;;;;;;24.00;15.05;;;;;;;;;;7388058;19;20002;-77
2022/03/17 07:12:37;;;;;;;27.70;15.00;;;;;;;;;;7389491;19;19999;-77
2022/03/17 07:15:04;;;;;;;24.48;14.75;;;;;;;;;;7387886;19;20003;-77
2022/03/17 07:17:39;;;;;;;26.13;15.00;;;;;;;;;;7385361;19;19999;-77
2022/03/17 07:20:09;;;;;;;24.33;14.63;;;;;;;;;;7385678;19;20019;-77
2022/03/17 07:22:35;;;;;;;26.35;14.98;;;;;;;;;;7391318;19;20054;-76
2022/03/17 07:25:01;;;;;;;28.17;16.67;;;;;;;;;;7389521;19;20062;-76
2022/03/17 07:27:26;;;;;;;24.88;15.65;;;;;;;;;;7387583;19;20042;-76
2022/03/17 07:29:52;;;;;;;28.60;15.05;;;;;;;;;;7393525;19;20019;-76
2022/03/17 07:32:22;;;;;;;25.35;14.93;;;;;;;;;;7392824;19;20024;-77
2022/03/17 07:34:48;;;;;;;26.63;15.85;;;;;;;;;;7396496;19;20074;-76
2022/03/17 07:37:13;;;;;;;24.75;14.88;;;;;;;;;;7394396;19;20023;-75
2022/03/17 07:39:38;;;;;;;27.65;15.45;;;;;;;;;;7390335;19;20479;-75
2022/03/17 07:42:04;;;;;;;22.67;14.23;;;;;;;;;;7395885;19;20003;-76
2022/03/17 07:44:30;;;;;;;27.45;16.05;;;;;;;;;;7397552;19;20114;-75
2022/03/17 07:46:56;;;;;;;24.85;14.75;;;;;;;;;;7393840;19;20006;-76
2022/03/17 07:49:21;;;;;;;24.02;15.30;;;;;;;;;;7394520;19;20021;-76
2022/03/17 07:51:46;;;;;;;30.33;16.25;;;;;;;;;;7397475;19;20375;-77
2022/03/17 07:54:12;;;;;;;28.50;15.90;;;;;;;;;;7395114;19;20024;-78
2022/03/17 07:56:37;;;;;;;24.70;15.35;;;;;;;;;;7394723;19;20014;-77
2022/03/17 07:59:02;;;;;;;25.50;15.63;;;;;;;;;;7393304;19;20122;-78
2022/03/17 08:01:28;;;;;;;27.20;15.65;;;;;;;;;;7396196;19;20013;-76
2022/03/17 08:03:54;;;;;;;24.38;15.57;;;;;;;;;;7394150;19;20006;-75
2022/03/17 08:06:19;;;;;;;24.20;14.57;;;;;;;;;;7396013;19;20006;-75
2022/03/17 08:08:46;;;;;;;28.38;14.05;;;;;;;;;;7390368;19;20009;-75
2022/03/17 08:11:12;;;;;;;26.67;15.75;;;;;;;;;;7394604;19;20014;-74
2022/03/17 08:13:37;;;;;;;28.75;16.50;;;;;;;;;;7393582;19;20031;-75
2022/03/17 08:16:02;;;;;;;23.90;14.55;;;;;;;;;;7396144;19;20014;-75
2022/03/17 08:18:29;;;;;;;26.10;15.77;;;;;;;;;;7393829;19;20129;-75
2022/03/17 08:20:54;;;;;;;25.63;15.93;;;;;;;;;;7393108;19;20027;-75
2022/03/17 08:23:21;;;;;;;26.15;15.52;;;;;;;;;;7396809;19;20010;-75
2022/03/17 08:25:48;;;;;;;27.50;16.33;;;;;;;;;;7391789;19;20002;-75
2022/03/17 08:28:13;;;;;;;26.38;15.00;;;;;;;;;;7390825;19;20018;-75
2022/03/17 08:30:39;;;;;;;26.67;15.07;;;;;;;;;;7393387;19;20790;-75
2022/03/17 08:33:05;;;;;;;25.10;15.77;;;;;;;;;;7395438;19;20489;-74
2022/03/17 08:35:31;;;;;;;26.40;15.93;;;;;;;;;;7396161;19;20033;-74
2022/03/17 08:37:59;;;;;;;28.65;16.08;;;;;;;;;;7391692;19;20037;-74
2022/03/17 08:40:24;;;;;;;25.15;15.73;;;;;;;;;;7390947;19;20002;-75
2022/03/17 08:42:50;;;;;;;26.75;16.27;;;;;;;;;;7393494;19;20092;-76
2022/03/17 08:50:44;;;;;;;24.90;14.70;;;;;;;;;;7396018;19;20009;-75
2022/03/17 08:53:10;;;;;;;27.33;15.35;;;;;;;;;;7390944;19;19995;-76
2022/03/17 08:55:36;;;;;;;26.65;16.58;;;;;;;;;;7390340;19;20054;-75
2022/03/17 08:58:03;;;;;;;24.85;15.63;;;;;;;;;;7383329;19;20038;-75
2022/03/17 09:00:30;;;;;;;27.52;16.60;;;;;;;;;;7389097;19;20054;-76
2022/03/17 09:03:01;;;;;;;26.52;16.70;;;;;;;;;;7394114;19;19998;-75
2022/03/17 09:05:27;;;;;;;23.98;15.40;;;;;;;;;;7391729;19;20022;-74
2022/03/17 09:07:52;;;;;;;30.27;15.23;;;;;;;;;;7391157;19;19999;-75
2022/03/17 09:10:18;;;;;;;24.90;14.90;;;;;;;;;;7392495;19;20003;-74
2022/03/17 09:12:43;;;;;;;27.13;15.38;;;;;;;;;;7390188;19;20002;-76
2022/03/17 09:15:11;;;;;;;26.95;15.38;;;;;;;;;;7393298;19;20101;-75
2022/03/17 09:17:40;;;;;;;20.77;13.98;;;;;;;;;;7391450;19;20111;-76
2022/03/17 09:20:09;;;;;;;28.80;17.08;;;;;;;;;;7388978;19;20107;-74
2022/03/17 09:22:34;;;;;;;22.40;14.07;;;;;;;;;;7390906;19;20006;-75
2022/03/17 09:25:00;;;;;;;26.40;15.98;;;;;;;;;;7389369;19;20130;-75
2022/03/17 09:27:28;;;;;;;25.63;15.32;;;;;;;;;;7390850;19;20071;-75
2022/03/17 09:29:53;;;;;;;23.92;15.15;;;;;;;;;;7388465;19;20014;-74
2022/03/17 09:32:21;;;;;;;23.83;15.60;;;;;;;;;;7390293;19;20184;-75
2022/03/17 09:34:46;;;;;;;24.55;14.88;;;;;;;;;;7387548;19;20017;-74
2022/03/17 09:37:12;;;;;;;25.27;15.27;;;;;;;;;;7391930;19;20002;-76
2022/03/17 09:39:45;;;;;;;21.08;13.75;;;;;;;;;;7386769;19;20013;-76
2022/03/17 09:42:14;;;;;;;22.65;14.32;;;;;;;;;;7390258;19;20089;-78
2022/03/17 09:44:39;;;;;;;24.17;14.38;;;;;;;;;;7384750;19;20013;-74
2022/03/17 09:47:09;;;;;;;24.80;14.52;;;;;;;;;;7387137;19;20006;-74
2022/03/17 09:49:37;;;;;;;23.77;13.90;;;;;;;;;;7389193;19;20015;-74
2022/03/17 09:52:12;;;;;;;24.42;13.93;;;;;;;;;;7391030;19;20102;-74
2022/03/17 09:54:38;;;;;;;23.02;14.68;;;;;;;;;;7384233;19;20014;-74
2022/03/17 09:57:04;;;;;;;24.58;14.13;;;;;;;;;;7389508;19;20142;-73
2022/03/17 09:59:30;;;;;;;23.55;14.15;;;;;;;;;;7386085;19;20006;-75
2022/03/17 10:01:57;;;;;;;16.85;12.18;;;;;;;;;;7388623;19;20038;-74
2022/03/17 10:04:23;;;;;;;24.17;14.27;;;;;;;;;;7386113;19;20007;-74
2022/03/17 10:06:49;;;;;;;24.95;14.52;;;;;;;;;;7393086;19;20020;-74
2022/03/17 10:09:15;;;;;;;23.75;14.23;;;;;;;;;;7387196;19;20100;-74
2022/03/17 10:11:41;;;;;;;21.20;13.90;;;;;;;;;;7389214;19;20018;-74
2022/03/17 10:14:07;;;;;;;25.98;14.32;;;;;;;;;;7387163;19;20010;-74
2022/03/17 10:16:33;;;;;;;22.08;14.45;;;;;;;;;;7388060;19;20002;-74
2022/03/17 10:19:04;;;;;;;24.25;14.45;;;;;;;;;;7388380;19;20006;-75
2022/03/17 10:21:30;;;;;;;25.85;15.00;;;;;;;;;;7392348;19;20018;-74
2022/03/17 10:23:59;;;;;;;25.50;15.32;;;;;;;;;;7387061;19;20047;-74
2022/03/17 10:26:30;;;;;;;22.10;14.50;;;;;;;;;;7388405;19;20026;-74
2022/03/17 10:29:17;;;;;;;24.40;14.20;;;;;;;;;;7382828;19;20017;-74
2022/03/17 10:32:04;;;;;;;22.58;15.05;;;;;;;;;;7385396;19;20576;-74
2022/03/17 10:34:49;;;;;;;20.05;12.80;;;;;;;;;;7385766;19;20040;-75
2022/03/17 10:37:19;;;;;;;23.75;14.60;;;;;;;;;;7388701;19;20015;-76
2022/03/17 10:39:54;;;;;;;21.55;14.68;;;;;;;;;;7387994;19;20017;-75
2022/03/17 10:42:26;;;;;;;23.48;14.85;;;;;;;;;;7384927;19;20427;-76
2022/03/17 10:45:06;;;;;;;25.20;14.00;;;;;;;;;;7386799;19;20104;-75
2022/03/17 10:47:37;;;;;;;20.80;13.48;;;;;;;;;;7393213;19;20006;-75
2022/03/17 10:50:03;;;;;;;26.73;15.60;;;;;;;;;;7389220;19;20041;-76
2022/03/17 10:52:55;;;;;;;22.55;14.25;;;;;;;;;;7390843;19;20038;-77
2022/03/17 10:55:21;;;;;;;25.77;13.27;;;;;;;;;;7389583;19;20114;-75
2022/03/17 10:57:47;;;;;;;23.63;14.10;;;;;;;;;;7384209;19;20006;-75
2022/03/17 11:00:20;;;;;;;19.80;13.43;;;;;;;;;;7380966;19;20014;-76
2022/03/17 11:02:48;;;;;;;21.95;13.95;;;;;;;;;;7385633;19;20021;-75
2022/03/17 11:05:15;;;;;;;23.85;15.48;;;;;;;;;;7380896;19;20013;-76
2022/03/17 11:07:44;;;;;;;23.08;15.23;;;;;;;;;;7386032;19;20006;-76
2022/03/17 11:10:10;;;;;;;25.38;14.32;;;;;;;;;;7384167;19;20017;-75
2022/03/17 11:12:37;;;;;;;24.83;15.07;;;;;;;;;;7388506;19;20367;-75
2022/03/17 11:15:02;;;;;;;23.83;13.90;;;;;;;;;;7388015;19;20014;-75
2022/03/17 11:17:37;;;;;;;23.58;14.43;;;;;;;;;;7387752;19;20010;-76
2022/03/17 11:20:06;;;;;;;24.65;15.50;;;;;;;;;;7387005;19;20015;-75
2022/03/17 11:22:33;;;;;;;20.27;13.85;;;;;;;;;;7386084;19;20034;-75
2022/03/17 11:25:26;;;;;;;22.17;14.35;;;;;;;;;;7386900;19;20103;-74
2022/03/17 11:27:59;;;;;;;21.88;13.55;;;;;;;;;;7385930;19;20032;-74
2022/03/17 11:30:45;;;;;;;21.13;13.70;;;;;;;;;;7382014;19;20404;-75
2022/03/17 11:33:27;;;;;;;21.52;14.25;;;;;;;;;;7387413;19;20070;-76
2022/03/17 11:36:15;;;;;;;23.52;14.48;;;;;;;;;;7389533;19;20106;-76
2022/03/17 11:38:58;;;;;;;19.20;12.77;;;;;;;;;;7387727;19;20015;-76
2022/03/17 11:41:24;;;;;;;23.95;15.02;;;;;;;;;;7387623;19;20442;-77
2022/03/17 11:43:49;;;;;;;25.38;14.98;;;;;;;;;;7388262;19;20005;-75
2022/03/17 11:46:19;;;;;;;22.20;14.15;;;;;;;;;;7384976;19;20728;-76
2022/03/17 11:48:47;;;;;;;24.13;15.38;;;;;;;;;;7386131;19;20019;-75
2022/03/17 11:51:15;;;;;;;22.45;14.23;;;;;;;;;;7384413;19;20623;-76
2022/03/17 11:53:49;;;;;;;21.35;14.23;;;;;;;;;;7387225;19;20017;-76
2022/03/17 11:56:42;;;;;;;22.92;14.95;;;;;;;;;;7385747;19;20014;-77
2022/03/17 11:59:09;;;;;;;18.38;13.27;;;;;;;;;;7383564;19;20039;-77
2022/03/17 12:01:41;;;;;;;21.27;14.23;;;;;;;;;;7389677;19;20027;-76
2022/03/17 12:04:07;;;;;;;22.13;14.52;;;;;;;;;;7385444;19;20047;-77
2022/03/17 12:06:34;;;;;;;20.10;14.65;;;;;;;;;;7388857;19;20006;-75
2022/03/17 12:09:10;;;;;;;24.85;14.80;;;;;;;;;;7385831;19;20031;-75
2022/03/17 12:11:47;;;;;;;23.35;15.57;;;;;;;;;;7387201;19;20049;-75
2022/03/17 12:14:20;;;;;;;20.00;12.52;;;;;;;;;;7393289;19;20335;-75
2022/03/17 12:16:57;;;;;;;26.13;14.60;;;;;;;;;;7392115;19;20122;-75
2022/03/17 12:19:42;;;;;;;25.48;15.40;;;;;;;;;;7388815;19;20018;-75
2022/03/17 12:22:13;;;;;;;24.38;14.10;;;;;;;;;;7395053;19;20537;-75
2022/03/17 12:24:52;;;;;;;23.08;15.27;;;;;;;;;;7391818;19;20006;-75
2022/03/17 12:27:23;;;;;;;25.63;15.13;;;;;;;;;;7394009;19;20058;-77
2022/03/17 12:29:55;;;;;;;27.15;15.80;;;;;;;;;;7393038;19;20034;-75
2022/03/17 12:32:22;;;;;;;23.35;15.13;;;;;;;;;;7394379;19;20737;-76
2022/03/17 12:34:53;;;;;;;23.67;15.43;;;;;;;;;;7390115;19;20036;-77
2022/03/17 12:37:21;;;;;;;21.95;13.93;;;;;;;;;;7392358;19;20010;-75
2022/03/17 12:39:51;;;;;;;24.17;15.30;;;;;;;;;;7392900;19;20444;-77
2022/03/17 12:42:31;;;;;;;23.27;14.60;;;;;;;;;;7392861;19;20054;-76
2022/03/17 12:45:04;;;;;;;25.17;15.85;;;;;;;;;;7395513;19;20030;-77
2022/03/17 12:47:32;;;;;;;22.05;15.20;;;;;;;;;;7394006;19;20055;-75
2022/03/17 12:49:59;;;;;;;24.52;16.25;;;;;;;;;;7393205;19;20003;-76
2022/03/17 12:52:28;;;;;;;21.27;12.43;;;;;;;;;;7394007;19;20009;-75
2022/03/17 12:54:56;;;;;;;22.60;14.55;;;;;;;;;;7396062;19;20011;-78
2022/03/17 12:57:24;;;;;;;24.35;14.75;;;;;;;;;;7392641;19;20006;-76
2022/03/17 12:59:50;;;;;;;24.02;15.30;;;;;;;;;;7391273;19;20010;-76
2022/03/17 13:02:17;;;;;;;25.20;15.25;;;;;;;;;;7396208;19;20068;-76
2022/03/17 13:04:44;;;;;;;28.80;14.95;;;;;;;;;;7394698;19;20049;-75
2022/03/17 13:07:11;;;;;;;24.65;15.27;;;;;;;;;;7394200;19;20011;-76
2022/03/17 13:09:39;;;;;;;28.02;15.88;;;;;;;;;;7393569;19;20010;-76
2022/03/17 13:14:57;;;;;;;22.52;14.60;;;;;;;;;;7394737;19;20010;-76
2022/03/17 13:17:36;;;;;;;28.02;16.05;;;;;;;;;;7388614;19;20644;-74
2022/03/17 13:20:08;;;;;;;21.40;13.27;;;;;;;;;;7390748;19;20019;-75
2022/03/17 13:22:34;;;;;;;20.65;13.15;;;;;;;;;;7394448;19;20446;-75
2022/03/17 13:25:11;;;;;;;23.17;14.98;;;;;;;;;;7386296;19;20018;-74
2022/03/17 13:27:43;;;;;;;24.25;14.13;;;;;;;;;;7390592;19;20419;-74
2022/03/17 13:30:10;;;;;;;20.08;13.63;;;;;;;;;;7392228;19;20540;-75
2022/03/17 13:32:35;;;;;;;25.90;14.65;;;;;;;;;;7391409;19;20010;-76
2022/03/17 13:35:03;;;;;;;20.58;12.63;;;;;;;;;;7392843;19;20775;-75
2022/03/17 13:37:39;;;;;;;21.80;13.18;;;;;;;;;;7386902;19;20022;-76
2022/03/17 13:40:09;;;;;;;22.55;12.70;;;;;;;;;;7387936;19;20077;-75
2022/03/17 13:42:34;;;;;;;21.52;13.88;;;;;;;;;;7388616;19;20006;-75
2022/03/17 13:45:00;;;;;;;23.70;14.85;;;;;;;;;;7389837;19;20014;-76
2022/03/17 13:47:30;;;;;;;23.63;13.70;;;;;;;;;;7390908;19;20043;-76
2022/03/17 13:50:13;;;;;;;22.25;14.50;;;;;;;;;;7391095;19;20006;-75
2022/03/17 13:52:40;;;;;;;18.38;11.45;;;;;;;;;;7392218;19;20430;-75
2022/03/17 13:55:13;;;;;;;19.83;13.55;;;;;;;;;;7389323;19;20031;-76
2022/03/17 13:57:39;;;;;;;19.80;12.40;;;;;;;;;;7387833;19;20011;-76
2022/03/17 14:00:22;;;;;;;21.65;12.00;;;;;;;;;;7389434;19;20038;-76
2022/03/17 14:03:14;;;;;;;23.23;14.23;;;;;;;;;;7389420;19;20127;-76
2022/03/17 14:06:06;;;;;;;20.83;13.88;;;;;;;;;;7391397;19;20022;-76
2022/03/17 14:08:34;;;;;;;35.25;14.40;;;;;;;;;;7388717;19;20019;-75
2022/03/17 14:11:06;;;;;;;21.80;14.13;;;;;;;;;;7392729;19;20010;-75
2022/03/17 14:13:32;;;;;;;23.40;13.23;;;;;;;;;;7392317;19;20038;-74
2022/03/17 14:15:58;;;;;;;20.30;13.77;;;;;;;;;;7392911;19;20030;-75
2022/03/17 14:18:24;;;;;;;19.38;12.73;;;;;;;;;;7389438;19;20375;-76
2022/03/17 14:20:49;;;;;;;22.33;12.23;;;;;;;;;;7393308;19;20605;-76
2022/03/17 14:26:01;;;;;;;20.40;12.30;;;;;;;;;;7392685;19;20457;-76
2022/03/17 14:28:26;;;;;;;20.77;13.52;;;;;;;;;;7390228;19;20169;-76
2022/03/17 14:30:52;;;;;;;22.90;13.05;;;;;;;;;;7389993;19;20251;-76
2022/03/17 14:33:17;;;;;;;22.48;13.98;;;;;;;;;;7388038;19;20011;-75
2022/03/17 14:35:43;;;;;;;19.50;13.45;;;;;;;;;;7390924;19;20025;-76
2022/03/17 14:38:08;;;;;;;18.35;12.45;;;;;;;;;;7384410;19;20003;-75
2022/03/17 14:40:34;;;;;;;34.45;13.93;;;;;;;;;;7388661;19;20010;-76